Wilmington International Airport
KILM : now visible

Airfield :











YOU CAN JOIN US ON...

 
LOGIN :

Register | Disclaimer

   EN    FR    IT 

 









Legend :    VFR   Marginal VFR   IFR   Intensive IFR   Very Intensive IFR
Visi :
Ceiling :
>= 8 km
>= 3000ft
5 to 8 km
1000 to 3000 ft
1500m to 5 km
500 to 1000 ft
800 to 1500m
200 to 500 ft
< 800m
< 200 ft
Symbols :   Thunderstorms  Fog  Heavy snow  Heavy precipitations  Wind > 20 kt






- Airport Elevation : 32 ft
- IATA code : ILM


KILM - Wilmington International

CURRENT METAR :
  • 241853Z 24008KT 10SM -RA BKN110 28/19 A3007 RMK AO2 RAB41 SLP181 P0000 T02780194

EXPIRED METARs :
  • 241753Z 22010KT 10SM CLR 31/19 A3006 RMK AO2 LTG DSNT W SLP180 T03060189 10311 20256 58010
  • 241653Z 22015KT 10SM FEW036 31/19 A3008 RMK AO2 SLP184 T03060194

TAF KILM
Valid from the 24 at 18:00 until the 25 at 18:00 UTC


241817Z 2418/2518 21010KT P6SM VCSH SCT030
TEMPO 2418/2422 4SM TSRA BKN030CB
FM250000 25005KT P6SM BKN120
FM250300 33004KT P6SM BKN020
FM250600 36005KT P6SM OVC010
FM251500 36008KT P6SM BKN025
KZDC FIR / North America



MET'MAP, your aeronautical weather chart ! - Copyright ORBIFLY December 2007 - Disclaimer

ORBIFLY MET'MAP TEAM :

Programming & Development : Alexandra Zaïnal
Original concept : Baudouin d'Aumeries
Technical & hardware support : Manuel Goepfert
Assistance : Marc-Olivier Méhu

Contact : metmap@orbifly.com




SOURCES & CREDITS :

   NOAA       Earth
Advisory